Time;durP1;ratioP1;P1;durP2;ratioP2;P2;SDS_P1;SDS_P2;PMS_P1;PMS_P2;Temp;Humidity;BMP_temperature;BMP_pressure;BME280_temperature;BME280_humidity;BME280_pressure;Samples;Min_cycle;Max_cycle;Signal;HPM_P1;HPM_P2
2023/10/20 00:00:15;;;;;;;13.23;9.27;;;;;;;7.57;68.08;99077.50;4999696;28;96941;-54
2023/10/20 00:02:43;;;;;;;13.77;9.27;;;;;;;7.57;68.09;99069.25;4999842;28;97341;-51
2023/10/20 00:05:11;;;;;;;13.90;9.13;;;;;;;7.55;68.20;99069.78;5013370;28;97122;-51
2023/10/20 00:07:37;;;;;;;11.97;8.40;;;;;;;7.55;68.04;99074.56;5002155;28;97047;-54
2023/10/20 00:10:03;;;;;;;11.00;8.70;;;;;;;7.54;68.10;99076.56;5000122;28;97100;-53
2023/10/20 00:12:30;;;;;;;13.53;8.83;;;;;;;7.57;68.12;99064.47;4998553;28;97099;-54
2023/10/20 00:14:55;;;;;;;11.37;8.73;;;;;;;7.58;68.31;99070.72;4999058;28;97167;-54
2023/10/20 00:17:22;;;;;;;11.10;8.23;;;;;;;7.58;68.24;99065.22;4999112;28;97126;-54
2023/10/20 00:19:47;;;;;;;10.57;8.30;;;;;;;7.56;68.19;99054.75;5000897;28;97210;-54
2023/10/20 00:22:13;;;;;;;9.13;7.93;;;;;;;7.52;68.26;99064.59;4999440;28;97253;-54
2023/10/20 00:24:39;;;;;;;12.60;8.60;;;;;;;7.51;68.29;99063.84;5000392;28;97186;-54
2023/10/20 00:27:04;;;;;;;10.63;8.20;;;;;;;7.49;68.16;99058.16;5001269;28;97068;-54
2023/10/20 00:29:29;;;;;;;11.00;8.47;;;;;;;7.50;68.36;99056.16;4998603;28;103601;-54
2023/10/20 00:31:55;;;;;;;10.33;7.80;;;;;;;7.50;68.45;99053.41;4998028;28;98079;-55
2023/10/20 00:34:20;;;;;;;10.27;7.40;;;;;;;7.47;68.38;99057.94;4997981;28;97072;-54
2023/10/20 00:36:45;;;;;;;10.43;8.10;;;;;;;7.47;68.33;99046.19;4997259;28;96738;-54
2023/10/20 00:39:12;;;;;;;10.67;7.80;;;;;;;7.47;68.44;99057.94;4999117;28;97285;-51
2023/10/20 00:41:38;;;;;;;10.17;7.83;;;;;;;7.50;68.47;99061.66;4998111;28;97962;-54
2023/10/20 00:44:04;;;;;;;10.27;7.57;;;;;;;7.51;68.42;99061.09;4999614;28;96642;-54
2023/10/20 00:46:30;;;;;;;9.70;7.00;;;;;;;7.51;68.49;99091.38;4999864;28;96758;-54
2023/10/20 00:48:56;;;;;;;9.07;6.83;;;;;;;7.51;68.32;99072.13;4999989;28;96801;-54
2023/10/20 00:51:24;;;;;;;11.40;7.90;;;;;;;7.51;68.41;99063.13;5004535;28;97386;-52
2023/10/20 00:53:50;;;;;;;8.00;6.80;;;;;;;7.49;68.49;99051.91;5005830;28;96677;-52
2023/10/20 00:56:16;;;;;;;8.30;6.70;;;;;;;7.50;68.40;99058.91;5003398;28;96684;-52
2023/10/20 00:58:42;;;;;;;8.80;6.60;;;;;;;7.54;68.34;99060.06;5005908;28;97463;-52
2023/10/20 01:01:07;;;;;;;8.30;6.77;;;;;;;7.55;68.08;99058.03;5004650;28;97754;-53
2023/10/20 01:03:34;;;;;;;7.77;6.40;;;;;;;7.52;68.43;99059.84;5005136;28;97255;-52
2023/10/20 01:06:03;;;;;;;8.97;6.90;;;;;;;7.52;68.27;99056.34;5004479;28;97206;-52
2023/10/20 01:08:28;;;;;;;8.10;6.20;;;;;;;7.52;68.29;99050.84;5003457;28;97259;-52
2023/10/20 01:10:53;;;;;;;12.90;6.70;;;;;;;7.55;68.24;99047.03;5005146;28;108852;-52
2023/10/20 01:13:19;;;;;;;7.80;5.83;;;;;;;7.50;68.16;99054.13;5004172;28;96745;-52
2023/10/20 01:15:46;;;;;;;9.17;5.90;;;;;;;7.49;68.21;99058.16;5004866;28;97095;-52
2023/10/20 01:18:11;;;;;;;6.10;5.33;;;;;;;7.53;68.35;99055.81;5005198;28;96724;-52
2023/10/20 01:20:38;;;;;;;9.50;5.50;;;;;;;7.50;68.26;99048.63;5003686;28;105218;-52
2023/10/20 01:23:03;;;;;;;5.70;5.03;;;;;;;7.45;68.27;99037.75;5003665;28;97188;-52
2023/10/20 01:25:29;;;;;;;5.83;5.20;;;;;;;7.46;68.23;99028.22;5004970;28;97117;-52
2023/10/20 01:27:55;;;;;;;6.70;5.60;;;;;;;7.46;68.33;99030.97;5004841;28;97168;-52
2023/10/20 01:30:21;;;;;;;5.40;4.90;;;;;;;7.46;68.55;99028.22;5003954;28;97202;-52
2023/10/20 01:32:47;;;;;;;8.10;5.67;;;;;;;7.43;68.49;99023.78;5003664;28;97193;-52
2023/10/20 01:35:13;;;;;;;7.60;5.30;;;;;;;7.45;68.30;99032.25;5003667;28;97344;-52
2023/10/20 01:37:40;;;;;;;5.73;5.13;;;;;;;7.42;68.44;99031.28;5006633;28;97263;-52
2023/10/20 01:40:08;;;;;;;5.73;5.20;;;;;;;7.43;68.34;99030.03;5005358;28;97304;-51
2023/10/20 01:42:33;;;;;;;7.90;5.17;;;;;;;7.41;68.29;99020.81;5004165;28;96663;-52
2023/10/20 01:44:59;;;;;;;6.70;5.57;;;;;;;7.44;68.48;99011.50;5005664;28;100433;-52
2023/10/20 01:47:24;;;;;;;6.60;4.90;;;;;;;7.40;68.57;99011.09;5005002;28;97447;-52
2023/10/20 01:49:49;;;;;;;6.07;4.50;;;;;;;7.35;68.40;98996.22;5003996;28;97091;-52
2023/10/20 01:52:15;;;;;;;5.53;4.77;;;;;;;7.38;68.45;99022.63;5003733;28;97554;-52
2023/10/20 01:54:40;;;;;;;4.70;4.20;;;;;;;7.35;68.61;98987.22;5005609;28;97510;-52
2023/10/20 01:57:05;;;;;;;4.80;4.30;;;;;;;7.40;68.53;98986.34;5004248;28;97227;-52
2023/10/20 01:59:31;;;;;;;5.40;4.53;;;;;;;7.44;68.40;98992.25;5005343;28;97180;-52
2023/10/20 02:01:56;;;;;;;4.40;4.00;;;;;;;7.42;68.22;98975.56;5002270;28;97107;-52
2023/10/20 02:04:22;;;;;;;4.83;4.33;;;;;;;7.38;68.52;98981.38;5000826;28;98341;-52
2023/10/20 02:06:47;;;;;;;5.13;4.40;;;;;;;7.42;68.35;98983.81;5001506;28;97193;-52
2023/10/20 02:09:12;;;;;;;5.17;4.20;;;;;;;7.43;68.36;98985.25;5001008;28;97370;-52
2023/10/20 02:11:38;;;;;;;7.27;4.53;;;;;;;7.39;68.38;98973.84;5001725;28;96978;-53
2023/10/20 02:14:03;;;;;;;4.47;4.07;;;;;;;7.36;68.33;98950.16;5002685;28;97106;-52
2023/10/20 02:16:30;;;;;;;5.60;4.03;;;;;;;7.33;68.49;98954.75;5001508;28;97288;-52
2023/10/20 02:18:55;;;;;;;5.03;3.93;;;;;;;7.33;68.48;98941.00;5000698;28;97302;-52
2023/10/20 02:21:21;;;;;;;6.27;4.40;;;;;;;7.34;68.42;98933.44;4999648;28;96999;-52
2023/10/20 02:23:46;;;;;;;3.80;3.43;;;;;;;7.36;68.43;98919.91;5001558;28;101267;-52
2023/10/20 02:26:12;;;;;;;4.43;3.17;;;;;;;7.36;68.52;98914.41;5001072;28;97687;-52
2023/10/20 02:28:37;;;;;;;3.67;3.37;;;;;;;7.31;68.45;98913.25;5000903;28;96754;-52
2023/10/20 02:31:14;;;;;;;4.47;3.07;;;;;;;7.32;68.69;98908.50;5001961;28;98250;-53
2023/10/20 02:33:40;;;;;;;3.13;2.83;;;;;;;7.31;68.40;98915.28;5000534;28;97249;-52
2023/10/20 02:36:05;;;;;;;3.83;2.87;;;;;;;7.28;68.46;98914.34;5001361;28;97053;-53
2023/10/20 02:38:31;;;;;;;5.97;2.70;;;;;;;7.29;68.63;98915.81;5000870;28;97206;-53
2023/10/20 02:40:56;;;;;;;2.90;2.70;;;;;;;7.31;68.54;98935.25;5001828;28;97236;-52
2023/10/20 02:43:22;;;;;;;2.40;2.27;;;;;;;7.30;68.37;98947.56;5000854;28;97581;-52
2023/10/20 02:45:49;;;;;;;2.40;2.30;;;;;;;7.31;68.44;98945.53;5002550;28;97186;-52
2023/10/20 02:48:15;;;;;;;2.63;2.43;;;;;;;7.34;68.35;98949.97;5001194;28;97909;-52
2023/10/20 02:50:40;;;;;;;2.97;2.40;;;;;;;7.35;68.56;98945.94;5000955;28;96788;-51
2023/10/20 02:53:07;;;;;;;2.60;2.40;;;;;;;7.38;68.20;98937.34;5001962;28;97422;-52
2023/10/20 02:55:32;;;;;;;2.40;1.97;;;;;;;7.36;68.06;98917.16;5001589;28;97275;-52
2023/10/20 02:57:59;;;;;;;2.73;2.53;;;;;;;7.32;68.29;98912.00;5000167;28;97469;-52
2023/10/20 03:00:24;;;;;;;3.10;1.93;;;;;;;7.32;68.25;98897.50;5001288;28;97075;-52
2023/10/20 03:02:50;;;;;;;2.23;2.13;;;;;;;7.26;68.35;98899.66;5001708;28;97025;-52
2023/10/20 03:05:15;;;;;;;2.17;2.07;;;;;;;7.28;68.27;98894.34;4999840;28;96918;-52
2023/10/20 03:07:41;;;;;;;2.80;2.53;;;;;;;7.25;68.34;98893.41;4999339;28;97121;-52
2023/10/20 03:10:08;;;;;;;1.70;1.60;;;;;;;7.27;68.23;98890.13;5000726;28;97586;-52
2023/10/20 03:12:33;;;;;;;2.60;2.40;;;;;;;7.28;68.38;98886.84;5000377;28;96679;-52
2023/10/20 03:14:59;;;;;;;2.70;2.00;;;;;;;7.22;68.49;98877.25;5001305;28;97353;-52
2023/10/20 03:17:24;;;;;;;2.27;2.07;;;;;;;7.25;68.43;98884.41;5001642;28;97447;-52
2023/10/20 03:19:49;;;;;;;1.90;1.80;;;;;;;7.25;68.47;98876.91;5000731;28;97071;-52
2023/10/20 03:22:15;;;;;;;1.90;1.80;;;;;;;7.27;68.31;98885.34;4999038;28;97212;-52
2023/10/20 03:24:41;;;;;;;2.17;2.00;;;;;;;7.28;68.10;98881.34;4998594;28;97203;-52
2023/10/20 03:27:07;;;;;;;2.90;2.07;;;;;;;7.26;68.37;98885.88;5000730;28;106868;-52
2023/10/20 03:29:32;;;;;;;1.80;1.70;;;;;;;7.22;68.48;98893.75;5000192;28;97093;-52
2023/10/20 03:31:57;;;;;;;3.80;2.20;;;;;;;7.23;68.54;98895.94;5000258;28;96766;-52
2023/10/20 03:34:23;;;;;;;2.40;2.20;;;;;;;7.23;68.33;98889.72;5000858;28;97235;-52
2023/10/20 03:36:48;;;;;;;2.40;2.20;;;;;;;7.24;68.51;98894.69;5000727;28;97352;-53
2023/10/20 03:39:20;;;;;;;4.60;2.20;;;;;;;7.25;68.33;98887.16;4999096;28;98208;-53
2023/10/20 03:41:46;;;;;;;2.67;2.30;;;;;;;7.20;68.60;98896.28;5000469;28;97067;-52
2023/10/20 03:44:11;;;;;;;2.67;2.47;;;;;;;7.17;68.50;98884.34;4995530;28;96863;-52
2023/10/20 03:46:45;;;;;;;2.50;2.30;;;;;;;7.18;68.51;98893.34;4999488;28;107279;-53
2023/10/20 03:49:11;;;;;;;2.50;2.30;;;;;;;7.17;68.46;98867.84;4998898;28;97769;-53
2023/10/20 03:51:37;;;;;;;2.30;2.10;;;;;;;7.18;68.49;98871.34;4998517;28;97047;-52
2023/10/20 03:54:05;;;;;;;4.00;2.03;;;;;;;7.19;68.52;98879.03;5001844;28;97368;-52
2023/10/20 03:56:34;;;;;;;2.53;2.33;;;;;;;7.21;68.55;98873.00;4999120;28;97314;-52
2023/10/20 03:59:00;;;;;;;4.67;2.53;;;;;;;7.17;68.49;98867.09;5000756;28;97340;-52
2023/10/20 04:01:26;;;;;;;2.33;2.10;;;;;;;7.19;68.73;98867.31;5001193;28;97058;-52
2023/10/20 04:03:51;;;;;;;2.60;2.40;;;;;;;7.18;68.39;98857.59;4999934;28;97225;-52
2023/10/20 04:06:17;;;;;;;2.57;2.37;;;;;;;7.18;68.42;98863.09;5020421;22;97357;-64
2023/10/20 04:08:42;;;;;;;2.77;2.57;;;;;;;7.16;68.76;98855.38;5018990;27;96816;-62
2023/10/20 04:11:08;;;;;;;2.60;2.40;;;;;;;7.18;68.33;98854.84;5020264;27;97061;-61
2023/10/20 04:13:33;;;;;;;3.83;2.60;;;;;;;7.15;68.54;98844.91;5020147;27;97685;-62
2023/10/20 04:16:11;;;;;;;2.10;2.00;;;;;;;7.16;68.54;98841.59;5017270;27;97198;-60
2023/10/20 04:18:37;;;;;;;2.13;2.03;;;;;;;7.15;68.69;98853.91;5001556;28;97455;-63
2023/10/20 04:21:03;;;;;;;2.73;2.53;;;;;;;7.16;68.63;98852.59;5001533;28;97483;-63
2023/10/20 04:23:28;;;;;;;3.93;3.07;;;;;;;7.17;68.48;98856.09;5001255;28;97303;-60
2023/10/20 04:25:54;;;;;;;3.10;2.80;;;;;;;7.16;68.55;98843.66;5000283;28;103324;-62
2023/10/20 04:28:35;;;;;;;2.60;2.40;;;;;;;7.16;68.50;98827.16;4997976;28;97002;-61
2023/10/20 04:42:32;;;;;;;2.87;2.63;;;;;;;7.11;68.48;98787.50;4998769;28;97409;-61
2023/10/20 05:02:46;;;;;;;4.50;3.73;;;;;;;7.12;68.64;98727.75;4997584;28;97021;-61
2023/10/20 05:07:53;;;;;;;3.50;3.20;;;;;;;7.14;68.62;98736.94;4998804;28;97014;-61
2023/10/20 05:10:20;;;;;;;6.63;3.47;;;;;;;7.17;68.42;98741.34;5000320;28;97323;-60
2023/10/20 05:12:46;;;;;;;5.67;3.90;;;;;;;7.16;68.63;98745.38;5001002;28;97056;-61
2023/10/20 05:15:12;;;;;;;4.90;3.67;;;;;;;7.16;68.61;98748.13;5001166;28;96831;-61
2023/10/20 05:17:37;;;;;;;4.10;3.57;;;;;;;7.17;68.67;98744.09;5000879;28;97799;-60
2023/10/20 05:20:05;;;;;;;6.00;3.80;;;;;;;7.16;68.58;98739.88;4998004;28;105367;-60
2023/10/20 05:22:31;;;;;;;4.10;3.70;;;;;;;7.15;68.60;98740.41;5002070;27;96978;-61
2023/10/20 05:24:56;;;;;;;6.03;4.03;;;;;;;7.11;68.61;98738.00;4999784;28;96829;-61
2023/10/20 05:27:24;;;;;;;5.70;4.23;;;;;;;7.13;68.73;98731.97;4999351;28;105196;-61
2023/10/20 05:29:49;;;;;;;5.10;3.80;;;;;;;7.08;68.67;98741.84;4998024;28;96802;-62
2023/10/20 05:32:15;;;;;;;3.80;2.80;;;;;;;7.11;68.98;98740.03;4999128;28;96698;-60
2023/10/20 05:34:40;;;;;;;6.17;3.60;;;;;;;7.12;68.82;98711.25;5000403;28;96727;-62
2023/10/20 05:37:06;;;;;;;3.80;3.43;;;;;;;7.11;69.05;98696.78;5003283;28;96730;-60
2023/10/20 05:39:31;;;;;;;5.53;3.57;;;;;;;7.11;68.91;98699.53;5003584;28;97501;-61
2023/10/20 05:41:56;;;;;;;4.67;3.20;;;;;;;7.16;68.93;98723.38;5001706;28;103830;-61
2023/10/20 05:44:23;;;;;;;4.03;3.63;;;;;;;7.19;68.81;98708.56;5005623;28;97050;-59
2023/10/20 05:46:49;;;;;;;3.90;3.50;;;;;;;7.23;68.68;98699.94;5003916;28;97267;-60
2023/10/20 05:49:15;;;;;;;5.50;3.37;;;;;;;7.21;68.76;98702.50;5003678;28;96642;-62
2023/10/20 05:51:40;;;;;;;7.10;3.77;;;;;;;7.20;68.90;98709.28;5002375;28;97117;-60
2023/10/20 05:54:07;;;;;;;4.80;3.40;;;;;;;7.16;68.86;98706.88;5004002;28;99421;-61
2023/10/20 05:56:32;;;;;;;3.60;3.00;;;;;;;7.17;68.87;98707.63;5017477;27;99408;-58
2023/10/20 05:58:57;;;;;;;5.07;3.30;;;;;;;7.15;68.95;98729.41;5001767;28;112483;-59
2023/10/20 06:01:23;;;;;;;3.10;2.90;;;;;;;7.14;69.00;98723.19;5004556;28;96900;-62
2023/10/20 06:03:49;;;;;;;4.40;3.10;;;;;;;7.13;69.03;98734.72;5002817;28;97455;-60
2023/10/20 06:06:15;;;;;;;4.53;3.20;;;;;;;7.17;68.83;98733.09;5002363;28;96724;-60
2023/10/20 06:08:41;;;;;;;3.90;2.60;;;;;;;7.17;68.83;98724.13;5003793;28;97010;-60
2023/10/20 06:11:06;;;;;;;7.10;3.33;;;;;;;7.19;68.85;98729.81;5001937;28;97124;-61
2023/10/20 06:13:34;;;;;;;3.07;2.80;;;;;;;7.20;68.77;98717.53;4994990;28;97926;-61
2023/10/20 06:16:10;;;;;;;3.63;3.03;;;;;;;7.21;69.00;98691.50;4999543;28;97451;-59
2023/10/20 06:18:39;;;;;;;3.53;2.77;;;;;;;7.21;68.69;98705.25;5003370;28;96677;-62
2023/10/20 06:21:06;;;;;;;5.17;2.30;;;;;;;7.20;68.78;98701.03;5002671;28;97881;-61
2023/10/20 06:23:32;;;;;;;2.50;2.23;;;;;;;7.16;68.83;98692.41;5004166;28;96767;-61
2023/10/20 06:25:58;;;;;;;3.90;2.50;;;;;;;7.16;68.83;98689.66;5002464;28;96730;-61
2023/10/20 06:28:23;;;;;;;3.07;2.77;;;;;;;7.14;68.91;98690.19;5004383;28;97808;-61
2023/10/20 06:30:50;;;;;;;3.27;2.50;;;;;;;7.13;68.93;98693.47;5004375;28;103837;-60
2023/10/20 06:35:52;;;;;;;2.30;1.83;;;;;;;7.12;68.83;98676.25;5002474;28;97706;-60
2023/10/20 06:38:30;;;;;;;3.93;1.93;;;;;;;7.12;68.88;98679.00;5004104;28;97193;-60
2023/10/20 06:40:59;;;;;;;2.10;1.90;;;;;;;7.10;68.95;98680.78;5000269;28;97438;-61
2023/10/20 06:43:24;;;;;;;1.70;1.60;;;;;;;7.09;69.11;98679.34;5006413;28;97193;-60
2023/10/20 06:46:00;;;;;;;2.70;2.03;;;;;;;7.05;69.03;98666.66;4990622;27;98005;-60
2023/10/20 06:48:26;;;;;;;1.93;1.73;;;;;;;7.05;69.01;98654.91;5000060;28;96733;-61
2023/10/20 06:50:52;;;;;;;1.87;1.70;;;;;;;7.03;69.00;98652.72;5000534;28;96602;-61
2023/10/20 06:53:18;;;;;;;2.60;2.00;;;;;;;7.07;68.97;98651.66;5001518;28;97458;-60
2023/10/20 06:55:46;;;;;;;2.57;1.90;;;;;;;7.04;68.76;98648.72;5000503;28;97243;-61
2023/10/20 06:58:12;;;;;;;1.87;1.57;;;;;;;7.01;69.04;98652.53;5000818;28;96933;-59
2023/10/20 07:00:37;;;;;;;1.40;1.30;;;;;;;7.01;69.05;98655.28;5001360;28;97571;-60
2023/10/20 07:03:03;;;;;;;1.90;1.77;;;;;;;7.01;69.08;98636.03;4999392;28;100243;-62
2023/10/20 07:05:28;;;;;;;2.83;1.70;;;;;;;7.01;68.90;98638.03;4999523;28;97547;-63
2023/10/20 07:07:53;;;;;;;3.03;1.60;;;;;;;7.01;69.10;98638.03;5000361;28;100857;-60
2023/10/20 07:10:21;;;;;;;1.57;1.43;;;;;;;7.01;68.95;98629.78;5001303;28;107893;-60
2023/10/20 07:12:47;;;;;;;1.13;1.03;;;;;;;7.01;68.87;98638.78;5000830;28;96800;-62
2023/10/20 07:15:12;;;;;;;1.50;1.40;;;;;;;7.01;68.95;98632.53;4999768;28;97447;-60
2023/10/20 07:17:37;;;;;;;1.30;1.20;;;;;;;7.00;68.87;98629.09;5001313;28;101304;-60
2023/10/20 07:20:06;;;;;;;2.13;1.70;;;;;;;6.97;68.92;98612.91;5000852;28;97990;-61
2023/10/20 07:22:32;;;;;;;2.10;1.60;;;;;;;6.98;69.00;98617.16;4992988;28;96817;-61
2023/10/20 07:24:57;;;;;;;2.77;1.60;;;;;;;6.98;69.02;98634.34;4999836;28;98547;-61
2023/10/20 07:27:23;;;;;;;1.20;1.10;;;;;;;6.99;68.86;98630.34;4999564;28;97608;-61
2023/10/20 07:29:48;;;;;;;2.03;1.83;;;;;;;6.98;68.92;98631.59;5001097;28;96726;-60
2023/10/20 07:32:14;;;;;;;1.30;1.17;;;;;;;7.01;68.84;98616.06;4999838;28;97764;-61
2023/10/20 07:34:39;;;;;;;1.73;1.53;;;;;;;6.98;68.79;98615.13;5000574;28;96872;-61
2023/10/20 07:37:06;;;;;;;2.17;1.40;;;;;;;6.97;68.78;98621.16;5000513;28;110637;-62
2023/10/20 07:39:33;;;;;;;2.17;1.23;;;;;;;6.93;68.90;98615.28;5000635;28;96677;-62
2023/10/20 07:41:58;;;;;;;1.87;1.40;;;;;;;6.89;68.92;98607.38;5001334;28;96969;-60
2023/10/20 07:44:24;;;;;;;1.30;1.20;;;;;;;6.93;68.93;98613.28;5001682;28;97109;-61
2023/10/20 07:46:50;;;;;;;2.80;1.23;;;;;;;6.92;68.91;98611.03;5003153;28;97172;-60
2023/10/20 07:49:16;;;;;;;1.67;1.30;;;;;;;6.97;68.89;98607.41;5003326;28;97210;-61
2023/10/20 07:51:41;;;;;;;1.50;1.17;;;;;;;6.97;68.80;98616.41;5003738;28;97056;-61
2023/10/20 07:54:08;;;;;;;1.10;0.93;;;;;;;6.95;68.76;98601.72;5000621;28;96770;-63
2023/10/20 07:56:34;;;;;;;1.40;1.30;;;;;;;6.91;68.79;98601.34;5003635;28;97283;-60
2023/10/20 07:59:00;;;;;;;2.00;0.80;;;;;;;6.93;68.88;98591.28;5000211;28;96675;-62
2023/10/20 08:01:25;;;;;;;2.63;1.33;;;;;;;6.89;68.78;98598.41;5002436;28;97333;-62
2023/10/20 08:03:52;;;;;;;1.23;0.87;;;;;;;6.89;69.01;98601.88;5002316;28;97066;-61
2023/10/20 08:06:17;;;;;;;1.20;1.10;;;;;;;6.86;69.00;98580.97;5000773;28;97148;-63
2023/10/20 08:08:44;;;;;;;1.10;0.97;;;;;;;6.86;68.78;98578.22;5003821;28;97132;-61
2023/10/20 08:11:09;;;;;;;1.47;0.80;;;;;;;6.84;68.83;98608.25;5003225;28;97385;-61
2023/10/20 08:13:35;;;;;;;2.60;0.90;;;;;;;6.87;68.84;98589.97;5000832;28;97079;-63
2023/10/20 08:16:03;;;;;;;1.10;0.83;;;;;;;6.82;68.76;98608.06;5001697;28;96666;-63
2023/10/20 08:18:33;;;;;;;1.20;0.77;;;;;;;6.75;68.84;98603.25;4999697;28;97219;-61
2023/10/20 08:21:07;;;;;;;1.40;0.80;;;;;;;6.79;69.04;98595.41;5001744;28;97768;-63
2023/10/20 08:23:33;;;;;;;1.00;0.90;;;;;;;6.79;68.91;98595.41;5001765;28;97425;-62
2023/10/20 08:25:58;;;;;;;1.13;1.03;;;;;;;6.79;68.94;98595.41;5001569;28;97997;-59
2023/10/20 08:28:25;;;;;;;0.70;0.70;;;;;;;6.80;69.03;98587.88;5002375;28;97403;-60
2023/10/20 08:30:50;;;;;;;2.77;1.00;;;;;;;6.80;68.92;98569.41;5003021;28;97440;-59
2023/10/20 08:33:16;;;;;;;2.73;0.83;;;;;;;6.79;68.90;98562.41;5001351;28;97389;-61
2023/10/20 08:35:41;;;;;;;0.83;0.83;;;;;;;6.78;68.95;98566.47;4995426;28;100383;-59
2023/10/20 08:38:07;;;;;;;1.13;0.90;;;;;;;6.72;69.11;98557.59;5001515;28;110590;-60
2023/10/20 08:40:33;;;;;;;1.00;0.90;;;;;;;6.74;69.09;98563.28;5000257;28;97105;-59
2023/10/20 08:43:02;;;;;;;1.20;0.80;;;;;;;6.77;69.05;98570.47;5000392;28;97965;-60
2023/10/20 08:45:31;;;;;;;0.80;0.70;;;;;;;6.79;69.12;98567.91;5002755;28;97057;-60
2023/10/20 08:47:59;;;;;;;0.93;0.80;;;;;;;6.78;68.92;98571.97;5003170;28;97168;-59
2023/10/20 08:50:24;;;;;;;1.00;1.00;;;;;;;6.76;68.91;98576.50;5002598;28;96640;-61
2023/10/20 08:52:52;;;;;;;1.37;0.60;;;;;;;6.80;68.93;98574.16;5001315;28;96766;-64
2023/10/20 08:55:17;;;;;;;0.63;0.63;;;;;;;6.78;68.87;98568.47;4999660;28;97201;-62
2023/10/20 08:57:43;;;;;;;0.80;0.77;;;;;;;6.73;68.92;98566.59;4993569;28;97050;-60
2023/10/20 09:00:19;;;;;;;1.60;0.70;;;;;;;6.71;68.90;98558.91;5001386;28;96787;-60
2023/10/20 09:02:44;;;;;;;1.10;0.90;;;;;;;6.63;69.12;98560.88;4999219;28;99406;-61
2023/10/20 09:05:09;;;;;;;1.10;1.00;;;;;;;6.67;69.06;98566.75;5001106;28;101669;-62
2023/10/20 09:07:35;;;;;;;0.97;0.90;;;;;;;6.66;68.95;98559.03;5000069;28;97079;-60
2023/10/20 09:10:00;;;;;;;0.93;0.83;;;;;;;6.71;69.17;98558.16;5000556;28;98822;-61
2023/10/20 09:12:29;;;;;;;0.60;0.60;;;;;;;6.74;69.05;98546.81;5005959;28;97250;-61
2023/10/20 09:14:56;;;;;;;1.00;0.90;;;;;;;6.75;68.97;98545.53;5006538;28;96676;-61
2023/10/20 09:17:22;;;;;;;0.70;0.70;;;;;;;6.73;69.00;98544.59;5003948;28;97170;-61
2023/10/20 09:19:47;;;;;;;1.07;0.73;;;;;;;6.73;68.95;98541.88;5005611;28;97192;-63
2023/10/20 09:22:13;;;;;;;1.47;0.90;;;;;;;6.73;68.91;98548.09;5004391;28;96838;-62
2023/10/20 09:24:41;;;;;;;1.63;0.70;;;;;;;6.77;68.86;98553.25;5005123;28;104250;-62
2023/10/20 09:27:07;;;;;;;0.73;0.73;;;;;;;6.77;68.80;98556.00;5004691;28;97384;-61
2023/10/20 09:29:34;;;;;;;1.47;1.00;;;;;;;6.78;68.88;98560.22;5004550;28;96790;-62
2023/10/20 09:31:59;;;;;;;1.20;1.10;;;;;;;6.77;68.88;98553.97;5008030;28;98230;-60
2023/10/20 09:34:25;;;;;;;0.80;0.80;;;;;;;6.76;68.81;98560.03;5004864;28;98303;-62
2023/10/20 09:36:52;;;;;;;2.30;0.80;;;;;;;6.72;68.83;98565.84;5002460;28;97322;-60
2023/10/20 09:39:27;;;;;;;0.63;0.63;;;;;;;6.75;68.92;98584.00;5004212;28;97264;-61
2023/10/20 09:41:53;;;;;;;1.20;1.07;;;;;;;6.72;68.74;98565.84;5004070;28;97356;-61
2023/10/20 09:44:36;;;;;;;1.20;0.90;;;;;;;6.72;68.98;98574.09;5004526;28;97134;-59
2023/10/20 09:47:13;;;;;;;0.80;0.73;;;;;;;6.66;68.91;98572.78;5005886;28;97111;-61
2023/10/20 09:49:40;;;;;;;1.97;0.63;;;;;;;6.67;68.93;98566.75;5006926;28;97066;-59
2023/10/20 09:52:06;;;;;;;0.93;0.80;;;;;;;6.70;68.75;98564.94;5004261;28;97903;-59
2023/10/20 09:54:33;;;;;;;1.33;1.20;;;;;;;6.68;68.76;98570.97;5005281;28;108757;-62
2023/10/20 09:57:00;;;;;;;1.37;0.83;;;;;;;6.68;69.01;98581.94;5001733;28;96691;-60
2023/10/20 09:59:27;;;;;;;0.67;0.67;;;;;;;6.70;68.84;98581.44;5003293;28;97554;-60
2023/10/20 10:01:53;;;;;;;3.77;0.97;;;;;;;6.70;68.66;98590.38;5004648;28;97089;-58
2023/10/20 10:04:27;;;;;;;0.70;0.70;;;;;;;6.71;68.79;98594.63;5003657;28;97221;-59
2023/10/20 10:06:52;;;;;;;1.37;0.93;;;;;;;6.69;68.75;98597.16;5022869;22;97251;-55
2023/10/20 10:09:18;;;;;;;1.00;0.70;;;;;;;6.64;68.78;98614.53;5022421;28;98243;-55
2023/10/20 10:11:45;;;;;;;1.83;1.30;;;;;;;6.65;68.60;98602.28;5024059;28;97193;-55
2023/10/20 10:14:21;;;;;;;2.57;1.30;;;;;;;6.64;68.66;98600.03;5023117;27;97260;-55
2023/10/20 10:16:54;;;;;;;1.20;1.00;;;;;;;6.60;68.83;98608.59;5037585;27;96793;-55
2023/10/20 10:19:23;;;;;;;1.53;0.80;;;;;;;6.64;68.87;98616.53;5022096;28;97107;-55
2023/10/20 10:21:53;;;;;;;16.47;11.37;;;;;;;6.67;68.67;98613.47;5021341;28;97261;-55
2023/10/20 10:24:20;;;;;;;15.13;9.30;;;;;;;6.65;68.66;98605.03;5021480;28;97629;-55
2023/10/20 10:26:51;;;;;;;5.20;3.90;;;;;;;6.67;68.58;98579.75;5021906;28;97094;-55
2023/10/20 10:29:18;;;;;;;2.80;2.33;;;;;;;6.66;68.74;98592.75;5022589;28;97062;-56
2023/10/20 10:31:44;;;;;;;1.63;1.53;;;;;;;6.66;68.62;98600.25;5022420;28;97767;-55
2023/10/20 10:34:10;;;;;;;2.20;0.87;;;;;;;6.68;68.62;98590.19;5019929;28;98154;-55
2023/10/20 10:36:48;;;;;;;0.83;0.83;;;;;;;6.67;68.57;98594.22;5022978;27;97433;-55
2023/10/20 10:39:22;;;;;;;1.10;1.10;;;;;;;6.60;68.83;98583.88;5021217;27;97116;-55
2023/10/20 10:41:48;;;;;;;0.97;0.87;;;;;;;6.53;68.76;98590.06;5021801;28;97632;-55
2023/10/20 10:44:13;;;;;;;3.57;1.50;;;;;;;6.51;68.89;98587.13;5021815;28;97183;-55
2023/10/20 10:46:38;;;;;;;1.37;0.90;;;;;;;6.50;68.75;98571.19;5020108;27;97303;-55
2023/10/20 10:49:08;;;;;;;1.83;1.00;;;;;;;6.49;68.88;98573.19;5022665;27;97176;-55
2023/10/20 10:51:42;;;;;;;0.60;0.60;;;;;;;6.49;68.73;98572.44;5021660;28;97928;-55
2023/10/20 10:54:07;;;;;;;0.80;0.80;;;;;;;6.47;68.83;98575.72;5021569;28;97260;-55
2023/10/20 10:56:33;;;;;;;0.73;0.60;;;;;;;6.45;68.83;98564.56;5022097;28;97035;-55
2023/10/20 10:58:58;;;;;;;1.77;0.83;;;;;;;6.43;68.86;98563.63;5022933;28;97150;-55
2023/10/20 11:01:24;;;;;;;0.73;0.73;;;;;;;6.44;68.87;98565.09;5018658;28;97365;-55
2023/10/20 11:03:49;;;;;;;0.80;0.60;;;;;;;6.44;68.78;98565.81;5021594;28;97194;-55
2023/10/20 11:06:15;;;;;;;0.60;0.60;;;;;;;6.44;68.83;98549.34;5021455;27;97261;-55
2023/10/20 11:08:44;;;;;;;0.70;0.60;;;;;;;6.40;68.63;98520.75;5021915;27;97085;-55
2023/10/20 11:11:10;;;;;;;0.70;0.70;;;;;;;6.36;68.95;98518.34;5021069;28;97205;-55
2023/10/20 11:13:35;;;;;;;0.87;0.83;;;;;;;6.38;68.96;98510.31;5021500;28;96594;-55
2023/10/20 11:16:03;;;;;;;0.77;0.77;;;;;;;6.38;69.09;98496.56;5035215;27;97075;-55
2023/10/20 11:18:29;;;;;;;0.80;0.70;;;;;;;6.41;68.97;98506.50;5019383;28;96671;-55
2023/10/20 11:20:54;;;;;;;1.13;1.03;;;;;;;6.42;68.90;98491.47;5021312;28;97842;-55
2023/10/20 11:23:32;;;;;;;1.80;0.60;;;;;;;6.40;69.01;98487.78;5021123;27;97737;-56
2023/10/20 11:25:57;;;;;;;0.60;0.60;;;;;;;6.38;68.94;98491.06;5022129;28;97263;-55
2023/10/20 11:28:23;;;;;;;0.63;0.63;;;;;;;6.38;68.93;98484.84;5020179;28;97126;-55
2023/10/20 11:30:49;;;;;;;0.60;0.60;;;;;;;6.39;68.97;98473.34;5020066;28;99141;-55
2023/10/20 11:33:15;;;;;;;0.60;0.50;;;;;;;6.37;68.97;98478.63;5020255;28;97129;-55
2023/10/20 11:35:42;;;;;;;0.70;0.70;;;;;;;6.35;68.88;98464.69;5019588;28;97148;-55
2023/10/20 11:38:07;;;;;;;0.60;0.60;;;;;;;6.38;68.98;98468.38;5020871;28;97065;-55
2023/10/20 11:40:32;;;;;;;0.50;0.40;;;;;;;6.36;68.82;98471.66;5021794;28;97931;-54
2023/10/20 11:42:58;;;;;;;0.80;0.60;;;;;;;6.39;68.79;98475.34;5020759;28;96545;-55
2023/10/20 11:45:24;;;;;;;0.60;0.60;;;;;;;6.38;68.80;98449.88;5020005;28;96991;-55
2023/10/20 11:47:49;;;;;;;1.23;0.60;;;;;;;6.30;68.91;98440.88;5020655;28;97043;-55
2023/10/20 11:50:15;;;;;;;0.60;0.57;;;;;;;6.33;68.90;98423.31;5019686;28;97580;-55
2023/10/20 11:52:41;;;;;;;1.10;0.60;;;;;;;6.28;68.82;98437.94;5021269;27;98671;-54
2023/10/20 11:55:11;;;;;;;0.80;0.80;;;;;;;6.27;69.01;98433.72;5019958;28;96891;-54
2023/10/20 11:57:39;;;;;;;0.80;0.60;;;;;;;6.28;68.87;98435.91;5020036;28;97323;-54
2023/10/20 12:00:09;;;;;;;0.60;0.50;;;;;;;6.29;69.00;98451.13;5018449;28;98391;-55
2023/10/20 12:02:35;;;;;;;1.27;0.60;;;;;;;6.29;68.75;98447.63;5019000;27;97220;-54
2023/10/20 12:05:00;;;;;;;0.60;0.50;;;;;;;6.27;69.03;98437.19;5019349;27;97082;-54
2023/10/20 12:07:26;;;;;;;3.60;0.90;;;;;;;6.33;68.69;98420.56;5017103;28;97253;-55
2023/10/20 12:09:53;;;;;;;0.70;0.70;;;;;;;6.28;68.73;98427.66;5020774;28;98644;-55
2023/10/20 12:12:19;;;;;;;0.60;0.50;;;;;;;6.30;68.74;98443.63;5021105;27;97620;-54